sensor_id;sensor_type;location;lat;lon;timestamp;P1;durP1;ratioP1;P2;durP2;ratioP2
19525;SDS011;9907;42.676;26.348;2022-09-30T00:01:38;5.13;;;4.60;;
19525;SDS011;9907;42.676;26.348;2022-09-30T00:04:04;6.17;;;5.13;;
19525;SDS011;9907;42.676;26.348;2022-09-30T00:06:31;5.43;;;4.93;;
19525;SDS011;9907;42.676;26.348;2022-09-30T00:08:59;5.83;;;5.20;;
19525;SDS011;9907;42.676;26.348;2022-09-30T00:11:27;6.23;;;4.90;;
19525;SDS011;9907;42.676;26.348;2022-09-30T00:13:55;6.23;;;5.03;;
19525;SDS011;9907;42.676;26.348;2022-09-30T00:16:22;6.87;;;5.20;;
19525;SDS011;9907;42.676;26.348;2022-09-30T00:18:49;6.80;;;5.03;;
19525;SDS011;9907;42.676;26.348;2022-09-30T00:21:15;6.27;;;5.50;;
19525;SDS011;9907;42.676;26.348;2022-09-30T00:23:41;5.73;;;4.90;;
19525;SDS011;9907;42.676;26.348;2022-09-30T00:26:10;5.50;;;5.00;;
19525;SDS011;9907;42.676;26.348;2022-09-30T00:28:38;7.10;;;5.13;;
19525;SDS011;9907;42.676;26.348;2022-09-30T00:31:06;5.23;;;4.67;;
19525;SDS011;9907;42.676;26.348;2022-09-30T00:33:35;5.73;;;5.23;;
19525;SDS011;9907;42.676;26.348;2022-09-30T00:36:01;5.93;;;5.23;;
19525;SDS011;9907;42.676;26.348;2022-09-30T00:38:28;5.67;;;5.07;;
19525;SDS011;9907;42.676;26.348;2022-09-30T00:40:54;5.93;;;5.30;;
19525;SDS011;9907;42.676;26.348;2022-09-30T00:46:28;5.80;;;5.10;;
19525;SDS011;9907;42.676;26.348;2022-09-30T00:48:58;5.53;;;5.03;;
19525;SDS011;9907;42.676;26.348;2022-09-30T00:51:34;7.30;;;5.53;;
19525;SDS011;9907;42.676;26.348;2022-09-30T00:54:04;5.67;;;5.10;;
19525;SDS011;9907;42.676;26.348;2022-09-30T00:56:37;5.53;;;5.03;;
19525;SDS011;9907;42.676;26.348;2022-09-30T00:59:12;5.90;;;5.40;;
19525;SDS011;9907;42.676;26.348;2022-09-30T01:01:43;7.17;;;5.30;;
19525;SDS011;9907;42.676;26.348;2022-09-30T01:04:16;6.57;;;4.80;;
19525;SDS011;9907;42.676;26.348;2022-09-30T01:06:46;4.90;;;4.50;;
19525;SDS011;9907;42.676;26.348;2022-09-30T01:09:12;5.30;;;4.80;;
19525;SDS011;9907;42.676;26.348;2022-09-30T01:11:38;5.53;;;4.77;;
19525;SDS011;9907;42.676;26.348;2022-09-30T01:14:05;6.13;;;5.10;;
19525;SDS011;9907;42.676;26.348;2022-09-30T01:16:50;6.00;;;5.40;;
19525;SDS011;9907;42.676;26.348;2022-09-30T01:31:47;5.77;;;5.23;;
19525;SDS011;9907;42.676;26.348;2022-09-30T01:39:24;5.90;;;5.30;;
19525;SDS011;9907;42.676;26.348;2022-09-30T01:49:50;5.37;;;4.80;;
19525;SDS011;9907;42.676;26.348;2022-09-30T01:52:40;5.97;;;5.37;;
19525;SDS011;9907;42.676;26.348;2022-09-30T01:55:18;6.97;;;5.30;;
19525;SDS011;9907;42.676;26.348;2022-09-30T02:00:41;7.10;;;6.00;;
19525;SDS011;9907;42.676;26.348;2022-09-30T02:03:14;6.93;;;5.80;;
19525;SDS011;9907;42.676;26.348;2022-09-30T02:05:45;7.30;;;5.30;;
19525;SDS011;9907;42.676;26.348;2022-09-30T02:08:22;5.87;;;5.13;;
19525;SDS011;9907;42.676;26.348;2022-09-30T02:11:12;6.40;;;5.63;;
19525;SDS011;9907;42.676;26.348;2022-09-30T02:16:31;5.70;;;5.20;;
19525;SDS011;9907;42.676;26.348;2022-09-30T02:22:16;6.73;;;5.27;;
19525;SDS011;9907;42.676;26.348;2022-09-30T02:24:44;5.80;;;5.30;;
19525;SDS011;9907;42.676;26.348;2022-09-30T02:27:18;6.53;;;5.93;;
19525;SDS011;9907;42.676;26.348;2022-09-30T02:29:48;6.63;;;5.30;;
19525;SDS011;9907;42.676;26.348;2022-09-30T02:32:21;8.63;;;5.20;;
19525;SDS011;9907;42.676;26.348;2022-09-30T02:34:49;6.63;;;5.77;;
19525;SDS011;9907;42.676;26.348;2022-09-30T02:37:34;6.67;;;5.07;;
19525;SDS011;9907;42.676;26.348;2022-09-30T02:40:06;5.70;;;5.10;;
19525;SDS011;9907;42.676;26.348;2022-09-30T02:42:37;8.47;;;5.30;;
19525;SDS011;9907;42.676;26.348;2022-09-30T02:45:08;7.30;;;5.07;;
19525;SDS011;9907;42.676;26.348;2022-09-30T02:50:30;6.47;;;5.27;;
19525;SDS011;9907;42.676;26.348;2022-09-30T02:53:34;6.27;;;5.40;;
19525;SDS011;9907;42.676;26.348;2022-09-30T02:58:40;7.53;;;5.47;;
19525;SDS011;9907;42.676;26.348;2022-09-30T03:01:11;5.93;;;5.33;;
19525;SDS011;9907;42.676;26.348;2022-09-30T03:03:57;5.80;;;5.30;;
19525;SDS011;9907;42.676;26.348;2022-09-30T03:06:28;7.43;;;5.00;;
19525;SDS011;9907;42.676;26.348;2022-09-30T03:08:53;6.13;;;5.30;;
19525;SDS011;9907;42.676;26.348;2022-09-30T03:11:20;5.80;;;5.30;;
19525;SDS011;9907;42.676;26.348;2022-09-30T03:25:02;8.17;;;5.17;;
19525;SDS011;9907;42.676;26.348;2022-09-30T03:30:29;6.30;;;5.30;;
19525;SDS011;9907;42.676;26.348;2022-09-30T03:36:14;7.10;;;6.10;;
19525;SDS011;9907;42.676;26.348;2022-09-30T03:38:49;6.60;;;5.90;;
19525;SDS011;9907;42.676;26.348;2022-09-30T03:46:39;6.27;;;5.77;;
19525;SDS011;9907;42.676;26.348;2022-09-30T03:49:30;8.97;;;6.33;;
19525;SDS011;9907;42.676;26.348;2022-09-30T03:52:00;10.10;;;6.67;;
19525;SDS011;9907;42.676;26.348;2022-09-30T03:54:31;6.23;;;5.63;;
19525;SDS011;9907;42.676;26.348;2022-09-30T03:56:57;8.03;;;6.00;;
19525;SDS011;9907;42.676;26.348;2022-09-30T03:59:27;6.67;;;6.00;;
19525;SDS011;9907;42.676;26.348;2022-09-30T04:01:53;9.60;;;6.37;;
19525;SDS011;9907;42.676;26.348;2022-09-30T04:04:19;6.57;;;5.57;;
19525;SDS011;9907;42.676;26.348;2022-09-30T04:06:44;6.50;;;5.77;;
19525;SDS011;9907;42.676;26.348;2022-09-30T04:09:11;6.27;;;5.73;;
19525;SDS011;9907;42.676;26.348;2022-09-30T04:11:36;7.10;;;5.73;;
19525;SDS011;9907;42.676;26.348;2022-09-30T04:14:02;9.30;;;6.40;;
19525;SDS011;9907;42.676;26.348;2022-09-30T04:16:28;6.77;;;6.10;;
19525;SDS011;9907;42.676;26.348;2022-09-30T04:18:54;8.20;;;6.00;;
19525;SDS011;9907;42.676;26.348;2022-09-30T04:21:21;7.90;;;5.83;;
19525;SDS011;9907;42.676;26.348;2022-09-30T04:23:47;7.53;;;6.37;;
19525;SDS011;9907;42.676;26.348;2022-09-30T04:26:13;9.00;;;6.60;;
19525;SDS011;9907;42.676;26.348;2022-09-30T04:28:40;9.63;;;6.23;;
19525;SDS011;9907;42.676;26.348;2022-09-30T04:31:06;8.83;;;6.90;;
19525;SDS011;9907;42.676;26.348;2022-09-30T04:33:32;8.60;;;6.67;;
19525;SDS011;9907;42.676;26.348;2022-09-30T04:35:59;8.87;;;6.77;;
19525;SDS011;9907;42.676;26.348;2022-09-30T04:38:25;8.23;;;6.53;;
19525;SDS011;9907;42.676;26.348;2022-09-30T04:40:51;9.40;;;6.90;;
19525;SDS011;9907;42.676;26.348;2022-09-30T04:43:19;7.40;;;6.70;;
19525;SDS011;9907;42.676;26.348;2022-09-30T04:45:46;11.03;;;6.80;;
19525;SDS011;9907;42.676;26.348;2022-09-30T04:48:13;7.70;;;6.23;;
19525;SDS011;9907;42.676;26.348;2022-09-30T04:50:39;12.60;;;6.47;;
19525;SDS011;9907;42.676;26.348;2022-09-30T04:53:05;8.50;;;6.30;;
19525;SDS011;9907;42.676;26.348;2022-09-30T04:55:31;11.80;;;6.00;;
19525;SDS011;9907;42.676;26.348;2022-09-30T04:57:57;9.57;;;6.13;;
19525;SDS011;9907;42.676;26.348;2022-09-30T05:00:23;8.77;;;5.50;;
19525;SDS011;9907;42.676;26.348;2022-09-30T05:02:49;7.40;;;5.20;;
19525;SDS011;9907;42.676;26.348;2022-09-30T05:05:15;5.60;;;5.00;;
19525;SDS011;9907;42.676;26.348;2022-09-30T05:07:41;5.87;;;5.30;;
19525;SDS011;9907;42.676;26.348;2022-09-30T05:10:07;6.17;;;5.30;;
19525;SDS011;9907;42.676;26.348;2022-09-30T05:12:36;9.77;;;5.57;;
19525;SDS011;9907;42.676;26.348;2022-09-30T05:15:03;7.33;;;5.33;;
19525;SDS011;9907;42.676;26.348;2022-09-30T05:17:29;5.83;;;4.97;;
19525;SDS011;9907;42.676;26.348;2022-09-30T05:19:56;6.20;;;5.60;;
19525;SDS011;9907;42.676;26.348;2022-09-30T05:22:22;6.27;;;5.37;;
19525;SDS011;9907;42.676;26.348;2022-09-30T05:24:49;6.13;;;5.30;;
19525;SDS011;9907;42.676;26.348;2022-09-30T05:27:15;5.77;;;4.50;;
19525;SDS011;9907;42.676;26.348;2022-09-30T05:29:42;6.53;;;4.73;;
19525;SDS011;9907;42.676;26.348;2022-09-30T05:32:07;6.10;;;4.63;;
19525;SDS011;9907;42.676;26.348;2022-09-30T05:34:33;9.10;;;4.80;;
19525;SDS011;9907;42.676;26.348;2022-09-30T05:36:58;5.43;;;4.57;;
19525;SDS011;9907;42.676;26.348;2022-09-30T05:39:24;4.40;;;4.00;;
19525;SDS011;9907;42.676;26.348;2022-09-30T05:41:49;5.90;;;4.40;;
19525;SDS011;9907;42.676;26.348;2022-09-30T05:44:15;6.10;;;4.13;;
19525;SDS011;9907;42.676;26.348;2022-09-30T05:46:41;6.40;;;4.00;;
19525;SDS011;9907;42.676;26.348;2022-09-30T05:49:07;7.80;;;4.00;;
19525;SDS011;9907;42.676;26.348;2022-09-30T05:51:33;5.27;;;4.07;;
19525;SDS011;9907;42.676;26.348;2022-09-30T05:53:58;6.03;;;3.80;;
19525;SDS011;9907;42.676;26.348;2022-09-30T05:56:24;4.97;;;4.00;;
19525;SDS011;9907;42.676;26.348;2022-09-30T05:58:49;4.40;;;4.00;;
19525;SDS011;9907;42.676;26.348;2022-09-30T06:01:15;5.87;;;3.87;;
19525;SDS011;9907;42.676;26.348;2022-09-30T06:03:44;7.33;;;4.00;;
19525;SDS011;9907;42.676;26.348;2022-09-30T06:06:11;5.60;;;3.50;;
19525;SDS011;9907;42.676;26.348;2022-09-30T06:08:37;4.17;;;3.73;;
19525;SDS011;9907;42.676;26.348;2022-09-30T06:11:13;7.47;;;4.37;;
19525;SDS011;9907;42.676;26.348;2022-09-30T06:13:41;4.10;;;3.70;;
19525;SDS011;9907;42.676;26.348;2022-09-30T06:16:08;4.80;;;3.70;;
19525;SDS011;9907;42.676;26.348;2022-09-30T06:18:35;3.80;;;3.37;;
19525;SDS011;9907;42.676;26.348;2022-09-30T06:21:03;4.10;;;3.57;;
19525;SDS011;9907;42.676;26.348;2022-09-30T06:23:29;4.33;;;3.47;;
19525;SDS011;9907;42.676;26.348;2022-09-30T06:25:56;4.80;;;3.57;;
19525;SDS011;9907;42.676;26.348;2022-09-30T06:28:22;5.03;;;3.43;;
19525;SDS011;9907;42.676;26.348;2022-09-30T06:30:48;4.13;;;3.50;;
19525;SDS011;9907;42.676;26.348;2022-09-30T06:33:14;5.17;;;3.57;;
19525;SDS011;9907;42.676;26.348;2022-09-30T06:35:40;4.00;;;3.63;;
19525;SDS011;9907;42.676;26.348;2022-09-30T06:38:09;4.13;;;3.73;;
19525;SDS011;9907;42.676;26.348;2022-09-30T06:40:35;7.90;;;4.50;;
19525;SDS011;9907;42.676;26.348;2022-09-30T06:43:01;5.30;;;3.70;;
19525;SDS011;9907;42.676;26.348;2022-09-30T06:45:27;5.90;;;4.13;;
19525;SDS011;9907;42.676;26.348;2022-09-30T06:48:00;6.00;;;4.57;;
19525;SDS011;9907;42.676;26.348;2022-09-30T06:50:28;6.93;;;5.20;;
19525;SDS011;9907;42.676;26.348;2022-09-30T06:52:58;9.17;;;4.50;;
19525;SDS011;9907;42.676;26.348;2022-09-30T06:55:25;5.70;;;4.17;;
19525;SDS011;9907;42.676;26.348;2022-09-30T06:57:52;7.90;;;4.03;;
19525;SDS011;9907;42.676;26.348;2022-09-30T07:00:18;6.30;;;3.93;;
19525;SDS011;9907;42.676;26.348;2022-09-30T07:02:44;13.80;;;5.33;;
19525;SDS011;9907;42.676;26.348;2022-09-30T07:05:09;12.60;;;5.30;;
19525;SDS011;9907;42.676;26.348;2022-09-30T07:07:35;11.90;;;5.07;;
19525;SDS011;9907;42.676;26.348;2022-09-30T07:10:01;8.23;;;4.67;;
19525;SDS011;9907;42.676;26.348;2022-09-30T07:12:28;9.97;;;5.10;;
19525;SDS011;9907;42.676;26.348;2022-09-30T07:14:53;9.23;;;5.10;;
19525;SDS011;9907;42.676;26.348;2022-09-30T07:17:20;12.80;;;5.27;;
19525;SDS011;9907;42.676;26.348;2022-09-30T07:19:46;7.20;;;4.47;;
19525;SDS011;9907;42.676;26.348;2022-09-30T07:22:11;8.37;;;4.63;;
19525;SDS011;9907;42.676;26.348;2022-09-30T07:24:55;9.00;;;4.00;;
19525;SDS011;9907;42.676;26.348;2022-09-30T07:27:23;11.23;;;4.18;;
19525;SDS011;9907;42.676;26.348;2022-09-30T07:29:50;14.85;;;5.38;;
19525;SDS011;9907;42.676;26.348;2022-09-30T07:32:15;8.73;;;4.90;;
19525;SDS011;9907;42.676;26.348;2022-09-30T07:34:42;6.68;;;4.22;;
19525;SDS011;9907;42.676;26.348;2022-09-30T07:37:09;10.70;;;5.10;;
19525;SDS011;9907;42.676;26.348;2022-09-30T07:39:36;11.18;;;5.07;;
19525;SDS011;9907;42.676;26.348;2022-09-30T07:42:02;13.68;;;6.22;;
19525;SDS011;9907;42.676;26.348;2022-09-30T07:44:29;14.18;;;6.95;;
19525;SDS011;9907;42.676;26.348;2022-09-30T07:46:56;14.25;;;6.18;;
19525;SDS011;9907;42.676;26.348;2022-09-30T07:49:22;13.88;;;6.63;;
19525;SDS011;9907;42.676;26.348;2022-09-30T07:51:55;10.27;;;5.38;;
19525;SDS011;9907;42.676;26.348;2022-09-30T07:54:29;13.13;;;6.15;;
19525;SDS011;9907;42.676;26.348;2022-09-30T07:56:56;19.00;;;6.72;;
19525;SDS011;9907;42.676;26.348;2022-09-30T07:59:24;15.07;;;6.15;;
19525;SDS011;9907;42.676;26.348;2022-09-30T08:01:51;22.23;;;6.45;;
19525;SDS011;9907;42.676;26.348;2022-09-30T08:04:17;13.48;;;7.28;;
19525;SDS011;9907;42.676;26.348;2022-09-30T08:06:45;10.80;;;6.50;;
19525;SDS011;9907;42.676;26.348;2022-09-30T08:09:13;12.90;;;5.00;;
19525;SDS011;9907;42.676;26.348;2022-09-30T08:11:40;9.07;;;4.63;;
19525;SDS011;9907;42.676;26.348;2022-09-30T08:14:07;11.27;;;5.85;;
19525;SDS011;9907;42.676;26.348;2022-09-30T08:16:37;18.20;;;7.22;;
19525;SDS011;9907;42.676;26.348;2022-09-30T08:19:02;11.80;;;6.47;;
19525;SDS011;9907;42.676;26.348;2022-09-30T08:21:29;14.48;;;5.97;;
19525;SDS011;9907;42.676;26.348;2022-09-30T08:23:54;8.70;;;6.43;;
19525;SDS011;9907;42.676;26.348;2022-09-30T08:26:20;6.95;;;3.50;;
19525;SDS011;9907;42.676;26.348;2022-09-30T08:28:45;7.68;;;3.90;;
19525;SDS011;9907;42.676;26.348;2022-09-30T08:31:13;4.80;;;3.40;;
19525;SDS011;9907;42.676;26.348;2022-09-30T08:33:41;3.85;;;3.10;;
19525;SDS011;9907;42.676;26.348;2022-09-30T08:36:08;3.83;;;2.60;;
19525;SDS011;9907;42.676;26.348;2022-09-30T08:38:38;5.70;;;4.93;;
19525;SDS011;9907;42.676;26.348;2022-09-30T08:46:35;4.68;;;2.70;;
19525;SDS011;9907;42.676;26.348;2022-09-30T08:52:32;6.20;;;3.27;;
19525;SDS011;9907;42.676;26.348;2022-09-30T08:55:00;5.80;;;3.23;;
19525;SDS011;9907;42.676;26.348;2022-09-30T08:57:33;4.87;;;3.03;;
19525;SDS011;9907;42.676;26.348;2022-09-30T09:00:03;5.67;;;3.30;;
19525;SDS011;9907;42.676;26.348;2022-09-30T09:08:00;4.80;;;2.60;;
19525;SDS011;9907;42.676;26.348;2022-09-30T09:16:26;3.43;;;3.10;;
19525;SDS011;9907;42.676;26.348;2022-09-30T09:19:14;4.17;;;3.30;;
19525;SDS011;9907;42.676;26.348;2022-09-30T09:24:25;4.97;;;3.20;;
19525;SDS011;9907;42.676;26.348;2022-09-30T09:26:53;6.00;;;3.87;;
19525;SDS011;9907;42.676;26.348;2022-09-30T09:29:26;4.20;;;3.30;;
19525;SDS011;9907;42.676;26.348;2022-09-30T09:31:56;4.50;;;3.50;;
19525;SDS011;9907;42.676;26.348;2022-09-30T09:34:23;4.70;;;3.50;;
19525;SDS011;9907;42.676;26.348;2022-09-30T09:40:11;6.13;;;3.83;;
19525;SDS011;9907;42.676;26.348;2022-09-30T09:42:57;4.53;;;3.80;;
19525;SDS011;9907;42.676;26.348;2022-09-30T09:49:13;3.63;;;3.27;;
19525;SDS011;9907;42.676;26.348;2022-09-30T09:51:47;3.67;;;3.43;;
19525;SDS011;9907;42.676;26.348;2022-09-30T09:54:22;5.33;;;3.80;;
19525;SDS011;9907;42.676;26.348;2022-09-30T09:56:55;4.03;;;3.63;;
19525;SDS011;9907;42.676;26.348;2022-09-30T09:59:20;4.50;;;3.37;;
19525;SDS011;9907;42.676;26.348;2022-09-30T10:04:24;3.67;;;3.30;;
19525;SDS011;9907;42.676;26.348;2022-09-30T10:06:52;5.13;;;3.10;;
19525;SDS011;9907;42.676;26.348;2022-09-30T10:09:21;4.13;;;2.80;;
19525;SDS011;9907;42.676;26.348;2022-09-30T10:14:29;6.27;;;3.03;;
19525;SDS011;9907;42.676;26.348;2022-09-30T10:16:59;6.30;;;3.77;;
19525;SDS011;9907;42.676;26.348;2022-09-30T10:19:26;4.20;;;2.70;;
19525;SDS011;9907;42.676;26.348;2022-09-30T10:24:51;3.30;;;2.50;;
19525;SDS011;9907;42.676;26.348;2022-09-30T10:27:32;8.63;;;3.70;;
19525;SDS011;9907;42.676;26.348;2022-09-30T10:29:59;4.67;;;2.37;;
19525;SDS011;9907;42.676;26.348;2022-09-30T10:32:24;4.13;;;2.27;;
19525;SDS011;9907;42.676;26.348;2022-09-30T10:35:16;6.50;;;3.50;;
19525;SDS011;9907;42.676;26.348;2022-09-30T10:37:49;5.83;;;3.40;;
19525;SDS011;9907;42.676;26.348;2022-09-30T10:40:16;5.60;;;2.90;;
19525;SDS011;9907;42.676;26.348;2022-09-30T10:42:44;5.00;;;3.60;;
19525;SDS011;9907;42.676;26.348;2022-09-30T10:47:57;5.90;;;3.40;;
19525;SDS011;9907;42.676;26.348;2022-09-30T10:50:27;4.70;;;3.57;;
19525;SDS011;9907;42.676;26.348;2022-09-30T10:52:57;4.77;;;3.33;;
19525;SDS011;9907;42.676;26.348;2022-09-30T10:55:40;5.33;;;3.00;;
19525;SDS011;9907;42.676;26.348;2022-09-30T10:58:33;5.70;;;3.33;;
19525;SDS011;9907;42.676;26.348;2022-09-30T11:01:37;7.70;;;2.87;;
19525;SDS011;9907;42.676;26.348;2022-09-30T11:04:02;5.33;;;4.17;;
19525;SDS011;9907;42.676;26.348;2022-09-30T11:06:30;5.47;;;2.63;;
19525;SDS011;9907;42.676;26.348;2022-09-30T11:15:10;4.87;;;2.73;;
19525;SDS011;9907;42.676;26.348;2022-09-30T11:17:48;5.63;;;2.77;;
19525;SDS011;9907;42.676;26.348;2022-09-30T11:20:24;3.97;;;2.53;;
19525;SDS011;9907;42.676;26.348;2022-09-30T11:23:04;4.53;;;2.70;;
19525;SDS011;9907;42.676;26.348;2022-09-30T11:25:47;4.23;;;2.83;;
19525;SDS011;9907;42.676;26.348;2022-09-30T11:41:23;5.40;;;3.20;;
19525;SDS011;9907;42.676;26.348;2022-09-30T12:00:16;3.30;;;3.03;;
19525;SDS011;9907;42.676;26.348;2022-09-30T12:02:53;4.20;;;2.83;;
19525;SDS011;9907;42.676;26.348;2022-09-30T12:05:36;7.17;;;3.80;;
19525;SDS011;9907;42.676;26.348;2022-09-30T12:13:17;7.80;;;2.97;;
19525;SDS011;9907;42.676;26.348;2022-09-30T12:15:44;5.40;;;3.23;;
19525;SDS011;9907;42.676;26.348;2022-09-30T12:18:13;4.07;;;2.60;;
19525;SDS011;9907;42.676;26.348;2022-09-30T12:20:50;4.60;;;3.00;;
19525;SDS011;9907;42.676;26.348;2022-09-30T12:23:31;3.70;;;2.80;;
19525;SDS011;9907;42.676;26.348;2022-09-30T12:26:02;4.20;;;3.17;;
19525;SDS011;9907;42.676;26.348;2022-09-30T12:28:32;5.03;;;3.10;;
19525;SDS011;9907;42.676;26.348;2022-09-30T12:47:44;5.07;;;3.90;;
19525;SDS011;9907;42.676;26.348;2022-09-30T12:50:18;3.87;;;3.13;;
19525;SDS011;9907;42.676;26.348;2022-09-30T12:52:46;5.37;;;3.13;;
19525;SDS011;9907;42.676;26.348;2022-09-30T12:57:39;9.20;;;6.80;;
19525;SDS011;9907;42.676;26.348;2022-09-30T13:00:18;4.63;;;3.40;;
19525;SDS011;9907;42.676;26.348;2022-09-30T13:02:58;3.80;;;3.23;;
19525;SDS011;9907;42.676;26.348;2022-09-30T13:23:41;5.47;;;3.33;;
19525;SDS011;9907;42.676;26.348;2022-09-30T13:31:24;5.67;;;4.30;;
19525;SDS011;9907;42.676;26.348;2022-09-30T13:44:27;3.97;;;3.17;;
19525;SDS011;9907;42.676;26.348;2022-09-30T13:49:51;4.70;;;3.00;;
19525;SDS011;9907;42.676;26.348;2022-09-30T13:52:24;4.27;;;3.50;;
19525;SDS011;9907;42.676;26.348;2022-09-30T13:54:54;4.50;;;3.27;;
19525;SDS011;9907;42.676;26.348;2022-09-30T13:57:27;6.47;;;3.77;;
19525;SDS011;9907;42.676;26.348;2022-09-30T14:00:05;3.30;;;3.00;;
19525;SDS011;9907;42.676;26.348;2022-09-30T14:08:02;5.40;;;3.60;;
19525;SDS011;9907;42.676;26.348;2022-09-30T14:19:12;9.70;;;7.13;;
19525;SDS011;9907;42.676;26.348;2022-09-30T14:22:01;18.70;;;10.57;;
19525;SDS011;9907;42.676;26.348;2022-09-30T14:24:29;14.27;;;7.27;;
19525;SDS011;9907;42.676;26.348;2022-09-30T14:32:56;7.27;;;4.67;;
19525;SDS011;9907;42.676;26.348;2022-09-30T14:35:33;4.57;;;4.17;;
19525;SDS011;9907;42.676;26.348;2022-09-30T14:38:04;7.73;;;4.00;;
19525;SDS011;9907;42.676;26.348;2022-09-30T14:40:59;5.37;;;4.80;;
19525;SDS011;9907;42.676;26.348;2022-09-30T14:43:33;4.57;;;3.40;;
19525;SDS011;9907;42.676;26.348;2022-09-30T14:46:06;4.33;;;3.30;;
19525;SDS011;9907;42.676;26.348;2022-09-30T14:48:43;6.17;;;5.03;;
19525;SDS011;9907;42.676;26.348;2022-09-30T14:51:13;5.17;;;3.27;;
19525;SDS011;9907;42.676;26.348;2022-09-30T14:53:51;3.97;;;2.77;;
19525;SDS011;9907;42.676;26.348;2022-09-30T14:56:28;6.10;;;3.40;;
19525;SDS011;9907;42.676;26.348;2022-09-30T14:59:00;4.60;;;2.90;;
19525;SDS011;9907;42.676;26.348;2022-09-30T15:01:40;4.67;;;3.20;;
19525;SDS011;9907;42.676;26.348;2022-09-30T15:04:25;4.70;;;3.20;;
19525;SDS011;9907;42.676;26.348;2022-09-30T15:06:55;4.83;;;3.00;;
19525;SDS011;9907;42.676;26.348;2022-09-30T15:09:33;5.23;;;3.50;;
19525;SDS011;9907;42.676;26.348;2022-09-30T15:12:02;6.10;;;3.30;;
19525;SDS011;9907;42.676;26.348;2022-09-30T15:14:29;9.83;;;3.50;;
19525;SDS011;9907;42.676;26.348;2022-09-30T15:16:57;5.30;;;2.90;;
19525;SDS011;9907;42.676;26.348;2022-09-30T15:21:50;6.07;;;3.60;;
19525;SDS011;9907;42.676;26.348;2022-09-30T15:24:18;6.53;;;4.63;;
19525;SDS011;9907;42.676;26.348;2022-09-30T15:26:46;4.97;;;3.83;;
19525;SDS011;9907;42.676;26.348;2022-09-30T15:29:13;3.47;;;2.97;;
19525;SDS011;9907;42.676;26.348;2022-09-30T15:31:46;4.77;;;3.20;;
19525;SDS011;9907;42.676;26.348;2022-09-30T15:34:23;4.40;;;3.20;;
19525;SDS011;9907;42.676;26.348;2022-09-30T15:37:02;6.13;;;3.90;;
19525;SDS011;9907;42.676;26.348;2022-09-30T15:39:35;4.63;;;3.83;;
19525;SDS011;9907;42.676;26.348;2022-09-30T15:42:39;7.60;;;4.17;;
19525;SDS011;9907;42.676;26.348;2022-09-30T15:45:27;5.60;;;5.00;;
19525;SDS011;9907;42.676;26.348;2022-09-30T15:50:42;4.83;;;4.33;;
19525;SDS011;9907;42.676;26.348;2022-09-30T15:53:17;9.10;;;4.57;;
19525;SDS011;9907;42.676;26.348;2022-09-30T15:55:45;5.90;;;4.63;;
19525;SDS011;9907;42.676;26.348;2022-09-30T16:03:51;7.10;;;4.67;;
19525;SDS011;9907;42.676;26.348;2022-09-30T16:06:32;8.73;;;5.10;;
19525;SDS011;9907;42.676;26.348;2022-09-30T16:09:16;7.73;;;5.53;;
19525;SDS011;9907;42.676;26.348;2022-09-30T16:11:43;10.47;;;6.60;;
19525;SDS011;9907;42.676;26.348;2022-09-30T16:14:30;11.70;;;6.90;;
19525;SDS011;9907;42.676;26.348;2022-09-30T16:17:22;8.97;;;5.77;;
19525;SDS011;9907;42.676;26.348;2022-09-30T16:19:51;8.17;;;6.90;;
19525;SDS011;9907;42.676;26.348;2022-09-30T16:22:33;12.73;;;6.83;;
19525;SDS011;9907;42.676;26.348;2022-09-30T16:25:00;9.27;;;6.43;;
19525;SDS011;9907;42.676;26.348;2022-09-30T16:27:52;10.57;;;5.03;;
19525;SDS011;9907;42.676;26.348;2022-09-30T16:30:45;15.23;;;7.17;;
19525;SDS011;9907;42.676;26.348;2022-09-30T16:33:12;9.73;;;5.70;;
19525;SDS011;9907;42.676;26.348;2022-09-30T16:35:40;8.47;;;4.53;;
19525;SDS011;9907;42.676;26.348;2022-09-30T16:38:08;6.67;;;4.60;;
19525;SDS011;9907;42.676;26.348;2022-09-30T16:40:36;12.63;;;5.50;;
19525;SDS011;9907;42.676;26.348;2022-09-30T16:43:03;8.13;;;5.17;;
19525;SDS011;9907;42.676;26.348;2022-09-30T16:45:29;6.83;;;4.80;;
19525;SDS011;9907;42.676;26.348;2022-09-30T16:47:55;7.83;;;6.83;;
19525;SDS011;9907;42.676;26.348;2022-09-30T16:52:50;11.43;;;5.30;;
19525;SDS011;9907;42.676;26.348;2022-09-30T16:55:15;8.43;;;4.90;;
19525;SDS011;9907;42.676;26.348;2022-09-30T16:57:41;10.63;;;7.47;;
19525;SDS011;9907;42.676;26.348;2022-09-30T17:00:09;9.83;;;6.83;;
19525;SDS011;9907;42.676;26.348;2022-09-30T17:02:39;9.83;;;7.97;;
19525;SDS011;9907;42.676;26.348;2022-09-30T17:05:05;14.63;;;7.60;;
19525;SDS011;9907;42.676;26.348;2022-09-30T17:07:30;11.80;;;9.83;;
19525;SDS011;9907;42.676;26.348;2022-09-30T17:09:56;15.57;;;9.70;;
19525;SDS011;9907;42.676;26.348;2022-09-30T17:12:21;16.33;;;8.80;;
19525;SDS011;9907;42.676;26.348;2022-09-30T17:14:47;14.50;;;10.07;;
19525;SDS011;9907;42.676;26.348;2022-09-30T17:17:13;13.17;;;8.83;;
19525;SDS011;9907;42.676;26.348;2022-09-30T17:19:38;11.33;;;6.73;;
19525;SDS011;9907;42.676;26.348;2022-09-30T17:22:04;11.23;;;7.30;;
19525;SDS011;9907;42.676;26.348;2022-09-30T17:24:30;7.37;;;5.60;;
19525;SDS011;9907;42.676;26.348;2022-09-30T17:26:56;8.37;;;5.07;;
19525;SDS011;9907;42.676;26.348;2022-09-30T17:29:22;14.83;;;5.53;;
19525;SDS011;9907;42.676;26.348;2022-09-30T17:31:47;8.37;;;6.10;;
19525;SDS011;9907;42.676;26.348;2022-09-30T17:34:13;7.63;;;5.50;;
19525;SDS011;9907;42.676;26.348;2022-09-30T17:36:38;6.90;;;5.80;;
19525;SDS011;9907;42.676;26.348;2022-09-30T17:39:04;7.57;;;4.70;;
19525;SDS011;9907;42.676;26.348;2022-09-30T17:41:31;5.87;;;4.80;;
19525;SDS011;9907;42.676;26.348;2022-09-30T17:44:15;7.07;;;5.20;;
19525;SDS011;9907;42.676;26.348;2022-09-30T17:46:44;5.57;;;5.00;;
19525;SDS011;9907;42.676;26.348;2022-09-30T17:49:10;7.73;;;4.50;;
19525;SDS011;9907;42.676;26.348;2022-09-30T17:51:37;4.93;;;4.40;;
19525;SDS011;9907;42.676;26.348;2022-09-30T17:54:03;10.50;;;5.13;;
19525;SDS011;9907;42.676;26.348;2022-09-30T17:56:30;6.83;;;4.97;;
19525;SDS011;9907;42.676;26.348;2022-09-30T17:58:56;7.17;;;5.00;;
19525;SDS011;9907;42.676;26.348;2022-09-30T18:01:24;6.50;;;4.97;;
19525;SDS011;9907;42.676;26.348;2022-09-30T18:03:50;5.20;;;4.23;;
19525;SDS011;9907;42.676;26.348;2022-09-30T18:06:20;7.47;;;4.30;;
19525;SDS011;9907;42.676;26.348;2022-09-30T18:08:49;4.50;;;4.10;;
19525;SDS011;9907;42.676;26.348;2022-09-30T18:11:19;19.30;;;15.97;;
19525;SDS011;9907;42.676;26.348;2022-09-30T18:13:49;12.50;;;10.03;;
19525;SDS011;9907;42.676;26.348;2022-09-30T18:16:19;25.77;;;19.23;;
19525;SDS011;9907;42.676;26.348;2022-09-30T18:18:45;17.10;;;14.37;;
19525;SDS011;9907;42.676;26.348;2022-09-30T18:21:11;26.23;;;20.93;;
19525;SDS011;9907;42.676;26.348;2022-09-30T18:23:36;5.83;;;5.23;;
19525;SDS011;9907;42.676;26.348;2022-09-30T18:26:01;16.53;;;14.57;;
19525;SDS011;9907;42.676;26.348;2022-09-30T18:28:27;10.77;;;9.30;;
19525;SDS011;9907;42.676;26.348;2022-09-30T18:30:53;13.17;;;11.60;;
19525;SDS011;9907;42.676;26.348;2022-09-30T18:33:19;6.13;;;5.53;;
19525;SDS011;9907;42.676;26.348;2022-09-30T18:35:46;7.47;;;5.07;;
19525;SDS011;9907;42.676;26.348;2022-09-30T18:38:11;4.60;;;3.77;;
19525;SDS011;9907;42.676;26.348;2022-09-30T18:40:41;5.20;;;3.97;;
19525;SDS011;9907;42.676;26.348;2022-09-30T18:43:11;8.27;;;4.20;;
19525;SDS011;9907;42.676;26.348;2022-09-30T18:45:38;4.63;;;4.20;;
19525;SDS011;9907;42.676;26.348;2022-09-30T18:48:04;4.63;;;3.90;;
19525;SDS011;9907;42.676;26.348;2022-09-30T18:50:31;6.27;;;4.20;;
19525;SDS011;9907;42.676;26.348;2022-09-30T18:52:58;7.77;;;4.60;;
19525;SDS011;9907;42.676;26.348;2022-09-30T18:55:26;6.77;;;4.67;;
19525;SDS011;9907;42.676;26.348;2022-09-30T18:57:52;5.37;;;4.10;;
19525;SDS011;9907;42.676;26.348;2022-09-30T19:00:18;4.43;;;3.80;;